CheckWX is a tool to help pilots better visualize weather data.  It is not intended as a substitute for an official pre-flight weather briefing.

08:15:56 UTC

SAAR TAF
Islas Malvinas Airport
Rosario, Argentina
TAF SAAR 190500Z 1906/2006 VRB03KT CAVOK TX25/1917Z TN11/2006Z BECMG 1908/1910 10010KT BKN015 BECMG 1914/1918 18020G30KT 5000 RA BR BKN020 OVC030 TEMPO 1920/1924 3000 -TSRA BR OVC020 FEW030CB BECMG 1923/2001 18010KT 1500 MIFGBR BKN010 OVC015

Mar-19@
06:00 UTC

Mar-19 @ 06:00 UTC

Mar-19@
08:00 UTC

Mar-19 @ 08:00 UTC

TAF SAAR 190500Z 1906/2006 VRB03KT CAVOK TX25/1917Z TN11/2006Z

Expired

Wind
  • Variable at 3 KTS
Cloud Levels
  • No significant clouds

Mar-19@
08:00 UTC

Mar-19 @ 08:00 UTC

Mar-19@
14:00 UTC

Mar-19 @ 14:00 UTC

BECMG 1908/1910 10010KT BKN015

Becoming

Becoming Conditions expected by Tue, Mar 19, 2019 @ 10:00 UTC

Wind
  • 100° at 10 KTS
Cloud Levels
  • Broken at 1,500' AGL

Mar-19@
14:00 UTC

Mar-19 @ 14:00 UTC

Mar-19@
23:00 UTC

Mar-19 @ 23:00 UTC

BECMG 1914/1918 18020G30KT 5000 RA BR BKN020 OVC030

Becoming

Becoming Conditions expected by Tue, Mar 19, 2019 @ 18:00 UTC

Wind
  • 180° at 20 KTS
  • {Gusting to 30 KTS
Conditions
Rain, Mist
Cloud Levels
  • Broken at 2,000' AGL
  • Overcast at 3,000' AGL

Mar-19@
20:00 UTC

Mar-19 @ 20:00 UTC

Mar-20@
00:00 UTC

Mar-20 @ 00:00 UTC

TEMPO 1920/1924 3000 -TSRA BR OVC020 FEW030CB

Temporary

Temporary Changes expected for less than half the time period

Conditions
Light Thunderstorm, Light Rain, Mist
Cloud Levels
  • Overcast at 2,000' AGL
  • Few at 3,000' AGL

Mar-19@
23:00 UTC

Mar-19 @ 23:00 UTC

Mar-20@
06:00 UTC

Mar-20 @ 06:00 UTC

BECMG 1923/2001 18010KT 1500 MIFGBR BKN010 OVC015

Becoming

Becoming Conditions expected by Wed, Mar 20, 2019 @ 01:00 UTC

Wind
  • 180° at 10 KTS
Conditions
Shallow Fog, Mist
Cloud Levels
  • Broken at 1,000' AGL
  • Overcast at 1,500' AGL